sensor_id;sensor_type;location;lat;lon;timestamp;temperature;humidity
22147;DHT22;13074;48.298;14.424;2023-01-26T00:00:52;2.90;99.90
22147;DHT22;13074;48.298;14.424;2023-01-26T00:03:20;2.90;99.90
22147;DHT22;13074;48.298;14.424;2023-01-26T00:05:47;3.00;99.90
22147;DHT22;13074;48.298;14.424;2023-01-26T00:08:14;2.90;99.90
22147;DHT22;13074;48.298;14.424;2023-01-26T00:10:43;2.90;99.90
22147;DHT22;13074;48.298;14.424;2023-01-26T00:13:16;2.90;99.90
22147;DHT22;13074;48.298;14.424;2023-01-26T00:15:44;2.80;99.90
22147;DHT22;13074;48.298;14.424;2023-01-26T00:18:11;2.80;99.90
22147;DHT22;13074;48.298;14.424;2023-01-26T00:20:38;2.80;99.90
22147;DHT22;13074;48.298;14.424;2023-01-26T00:23:06;2.80;99.90
22147;DHT22;13074;48.298;14.424;2023-01-26T00:25:33;2.80;99.90
22147;DHT22;13074;48.298;14.424;2023-01-26T00:28:01;2.80;99.90
22147;DHT22;13074;48.298;14.424;2023-01-26T00:30:28;2.80;99.90
22147;DHT22;13074;48.298;14.424;2023-01-26T00:32:55;2.90;99.90
22147;DHT22;13074;48.298;14.424;2023-01-26T00:35:23;2.90;99.90
22147;DHT22;13074;48.298;14.424;2023-01-26T00:37:50;2.90;99.90
22147;DHT22;13074;48.298;14.424;2023-01-26T00:40:17;2.90;99.90
22147;DHT22;13074;48.298;14.424;2023-01-26T00:42:45;2.90;99.90
22147;DHT22;13074;48.298;14.424;2023-01-26T00:45:13;2.90;99.90
22147;DHT22;13074;48.298;14.424;2023-01-26T00:47:40;2.80;99.90
22147;DHT22;13074;48.298;14.424;2023-01-26T00:50:10;2.80;99.90
22147;DHT22;13074;48.298;14.424;2023-01-26T00:52:37;2.80;99.90
22147;DHT22;13074;48.298;14.424;2023-01-26T00:55:05;2.90;99.90
22147;DHT22;13074;48.298;14.424;2023-01-26T00:57:32;2.80;99.90
22147;DHT22;13074;48.298;14.424;2023-01-26T00:59:59;2.90;99.90
22147;DHT22;13074;48.298;14.424;2023-01-26T01:02:28;2.80;99.90
22147;DHT22;13074;48.298;14.424;2023-01-26T01:04:55;2.80;99.90
22147;DHT22;13074;48.298;14.424;2023-01-26T01:07:22;2.80;99.90
22147;DHT22;13074;48.298;14.424;2023-01-26T01:09:49;2.90;99.90
22147;DHT22;13074;48.298;14.424;2023-01-26T01:12:16;2.80;99.90
22147;DHT22;13074;48.298;14.424;2023-01-26T01:14:43;2.80;99.90
22147;DHT22;13074;48.298;14.424;2023-01-26T01:17:11;2.80;99.90
22147;DHT22;13074;48.298;14.424;2023-01-26T01:19:40;2.80;99.90
22147;DHT22;13074;48.298;14.424;2023-01-26T01:22:07;2.80;99.90
22147;DHT22;13074;48.298;14.424;2023-01-26T01:24:34;2.80;99.90
22147;DHT22;13074;48.298;14.424;2023-01-26T01:27:02;2.70;99.90
22147;DHT22;13074;48.298;14.424;2023-01-26T01:29:29;2.70;99.90
22147;DHT22;13074;48.298;14.424;2023-01-26T01:31:57;2.70;99.90
22147;DHT22;13074;48.298;14.424;2023-01-26T01:34:24;2.70;99.90
22147;DHT22;13074;48.298;14.424;2023-01-26T01:36:53;2.70;99.90
22147;DHT22;13074;48.298;14.424;2023-01-26T01:39:20;2.60;99.90
22147;DHT22;13074;48.298;14.424;2023-01-26T01:41:47;2.60;99.90
22147;DHT22;13074;48.298;14.424;2023-01-26T01:44:16;2.60;99.90
22147;DHT22;13074;48.298;14.424;2023-01-26T01:46:47;2.60;99.90
22147;DHT22;13074;48.298;14.424;2023-01-26T01:49:18;2.50;99.90
22147;DHT22;13074;48.298;14.424;2023-01-26T01:51:50;2.50;99.90
22147;DHT22;13074;48.298;14.424;2023-01-26T01:54:22;2.50;99.90
22147;DHT22;13074;48.298;14.424;2023-01-26T01:56:56;2.50;99.90
22147;DHT22;13074;48.298;14.424;2023-01-26T01:59:24;2.50;99.90
22147;DHT22;13074;48.298;14.424;2023-01-26T02:01:52;2.60;99.90
22147;DHT22;13074;48.298;14.424;2023-01-26T02:04:20;2.60;99.90
22147;DHT22;13074;48.298;14.424;2023-01-26T02:06:50;2.50;99.90
22147;DHT22;13074;48.298;14.424;2023-01-26T02:09:24;2.50;99.90
22147;DHT22;13074;48.298;14.424;2023-01-26T02:12:12;2.50;99.90
22147;DHT22;13074;48.298;14.424;2023-01-26T02:14:41;2.40;99.90
22147;DHT22;13074;48.298;14.424;2023-01-26T02:17:08;2.40;99.90
22147;DHT22;13074;48.298;14.424;2023-01-26T02:19:45;2.40;99.90
22147;DHT22;13074;48.298;14.424;2023-01-26T02:22:19;2.40;99.90
22147;DHT22;13074;48.298;14.424;2023-01-26T02:24:50;2.40;99.90
22147;DHT22;13074;48.298;14.424;2023-01-26T02:27:20;2.30;99.90
22147;DHT22;13074;48.298;14.424;2023-01-26T02:29:47;2.30;99.90
22147;DHT22;13074;48.298;14.424;2023-01-26T02:32:15;2.40;99.90
22147;DHT22;13074;48.298;14.424;2023-01-26T02:34:42;2.40;99.90
22147;DHT22;13074;48.298;14.424;2023-01-26T02:37:12;2.40;99.90
22147;DHT22;13074;48.298;14.424;2023-01-26T02:39:44;2.40;99.90
22147;DHT22;13074;48.298;14.424;2023-01-26T02:42:13;2.40;99.90
22147;DHT22;13074;48.298;14.424;2023-01-26T02:44:59;2.40;99.90
22147;DHT22;13074;48.298;14.424;2023-01-26T02:47:26;2.40;99.90
22147;DHT22;13074;48.298;14.424;2023-01-26T02:49:54;2.40;99.90
22147;DHT22;13074;48.298;14.424;2023-01-26T02:52:22;2.40;99.90
22147;DHT22;13074;48.298;14.424;2023-01-26T02:54:50;2.40;99.90
22147;DHT22;13074;48.298;14.424;2023-01-26T02:57:35;2.40;99.90
22147;DHT22;13074;48.298;14.424;2023-01-26T03:00:06;2.40;99.90
22147;DHT22;13074;48.298;14.424;2023-01-26T03:02:34;2.40;99.90
22147;DHT22;13074;48.298;14.424;2023-01-26T03:05:02;2.40;99.90
22147;DHT22;13074;48.298;14.424;2023-01-26T03:07:30;2.40;99.90
22147;DHT22;13074;48.298;14.424;2023-01-26T03:09:57;2.30;99.90
22147;DHT22;13074;48.298;14.424;2023-01-26T03:12:24;2.30;99.90
22147;DHT22;13074;48.298;14.424;2023-01-26T03:14:52;2.30;99.90
22147;DHT22;13074;48.298;14.424;2023-01-26T03:17:34;2.20;99.90
22147;DHT22;13074;48.298;14.424;2023-01-26T03:20:02;2.20;99.90
22147;DHT22;13074;48.298;14.424;2023-01-26T03:22:47;2.20;99.90
22147;DHT22;13074;48.298;14.424;2023-01-26T03:25:32;2.20;99.90
22147;DHT22;13074;48.298;14.424;2023-01-26T03:28:16;2.20;99.90
22147;DHT22;13074;48.298;14.424;2023-01-26T03:30:47;2.20;99.90
22147;DHT22;13074;48.298;14.424;2023-01-26T03:33:16;2.30;99.90
22147;DHT22;13074;48.298;14.424;2023-01-26T03:35:43;2.30;99.90
22147;DHT22;13074;48.298;14.424;2023-01-26T03:38:11;2.30;99.90
22147;DHT22;13074;48.298;14.424;2023-01-26T03:40:38;2.30;99.90
22147;DHT22;13074;48.298;14.424;2023-01-26T03:43:23;2.30;99.90
22147;DHT22;13074;48.298;14.424;2023-01-26T03:46:08;2.30;99.90
22147;DHT22;13074;48.298;14.424;2023-01-26T03:48:54;2.30;99.90
22147;DHT22;13074;48.298;14.424;2023-01-26T03:51:39;2.30;99.90
22147;DHT22;13074;48.298;14.424;2023-01-26T03:54:23;2.30;99.90
22147;DHT22;13074;48.298;14.424;2023-01-26T03:57:08;2.30;99.90
22147;DHT22;13074;48.298;14.424;2023-01-26T03:59:35;2.30;99.90
22147;DHT22;13074;48.298;14.424;2023-01-26T04:02:07;2.20;99.90
22147;DHT22;13074;48.298;14.424;2023-01-26T04:04:53;2.20;99.90
22147;DHT22;13074;48.298;14.424;2023-01-26T04:07:38;2.20;99.90
22147;DHT22;13074;48.298;14.424;2023-01-26T04:10:24;2.20;99.90
22147;DHT22;13074;48.298;14.424;2023-01-26T04:12:51;2.20;99.90
22147;DHT22;13074;48.298;14.424;2023-01-26T04:15:36;2.20;99.90
22147;DHT22;13074;48.298;14.424;2023-01-26T04:18:21;2.20;99.90
22147;DHT22;13074;48.298;14.424;2023-01-26T04:21:07;2.20;99.90
22147;DHT22;13074;48.298;14.424;2023-01-26T04:23:54;2.20;99.90
22147;DHT22;13074;48.298;14.424;2023-01-26T04:26:22;2.10;99.90
22147;DHT22;13074;48.298;14.424;2023-01-26T04:28:50;2.20;99.90
22147;DHT22;13074;48.298;14.424;2023-01-26T04:31:17;2.10;99.90
22147;DHT22;13074;48.298;14.424;2023-01-26T04:33:44;2.10;99.90
22147;DHT22;13074;48.298;14.424;2023-01-26T04:36:13;2.20;99.90
22147;DHT22;13074;48.298;14.424;2023-01-26T04:38:40;2.20;99.90
22147;DHT22;13074;48.298;14.424;2023-01-26T04:41:07;2.20;99.90
22147;DHT22;13074;48.298;14.424;2023-01-26T04:43:34;2.20;99.90
22147;DHT22;13074;48.298;14.424;2023-01-26T04:46:03;2.10;99.90
22147;DHT22;13074;48.298;14.424;2023-01-26T04:48:31;2.10;99.90
22147;DHT22;13074;48.298;14.424;2023-01-26T04:51:00;2.10;99.90
22147;DHT22;13074;48.298;14.424;2023-01-26T04:53:31;2.10;99.90
22147;DHT22;13074;48.298;14.424;2023-01-26T04:55:58;2.10;99.90
22147;DHT22;13074;48.298;14.424;2023-01-26T04:58:26;2.10;99.90
22147;DHT22;13074;48.298;14.424;2023-01-26T05:00:54;2.20;99.90
22147;DHT22;13074;48.298;14.424;2023-01-26T05:03:22;2.20;99.90
22147;DHT22;13074;48.298;14.424;2023-01-26T05:05:51;2.20;99.90
22147;DHT22;13074;48.298;14.424;2023-01-26T05:08:19;2.20;99.90
22147;DHT22;13074;48.298;14.424;2023-01-26T05:10:48;2.20;99.90
22147;DHT22;13074;48.298;14.424;2023-01-26T05:13:16;2.10;99.90
22147;DHT22;13074;48.298;14.424;2023-01-26T05:15:43;2.10;99.90
22147;DHT22;13074;48.298;14.424;2023-01-26T05:18:11;2.10;99.90
22147;DHT22;13074;48.298;14.424;2023-01-26T05:20:38;2.10;99.90
22147;DHT22;13074;48.298;14.424;2023-01-26T05:23:05;2.10;99.90
22147;DHT22;13074;48.298;14.424;2023-01-26T05:25:32;2.10;99.90
22147;DHT22;13074;48.298;14.424;2023-01-26T05:28:01;2.10;99.90
22147;DHT22;13074;48.298;14.424;2023-01-26T05:30:28;2.10;99.90
22147;DHT22;13074;48.298;14.424;2023-01-26T05:33:00;2.10;99.90
22147;DHT22;13074;48.298;14.424;2023-01-26T05:35:27;2.20;99.90
22147;DHT22;13074;48.298;14.424;2023-01-26T05:37:54;2.10;99.90
22147;DHT22;13074;48.298;14.424;2023-01-26T05:40:22;2.20;99.90
22147;DHT22;13074;48.298;14.424;2023-01-26T05:42:49;2.20;99.90
22147;DHT22;13074;48.298;14.424;2023-01-26T05:45:18;2.20;99.90
22147;DHT22;13074;48.298;14.424;2023-01-26T05:47:46;2.20;99.90
22147;DHT22;13074;48.298;14.424;2023-01-26T05:50:15;2.20;99.90
22147;DHT22;13074;48.298;14.424;2023-01-26T05:52:42;2.20;99.90
22147;DHT22;13074;48.298;14.424;2023-01-26T05:55:11;2.20;99.90
22147;DHT22;13074;48.298;14.424;2023-01-26T05:57:38;2.10;99.90
22147;DHT22;13074;48.298;14.424;2023-01-26T06:00:07;2.10;99.90
22147;DHT22;13074;48.298;14.424;2023-01-26T06:02:36;2.10;99.90
22147;DHT22;13074;48.298;14.424;2023-01-26T06:05:05;2.10;99.90
22147;DHT22;13074;48.298;14.424;2023-01-26T06:07:33;2.20;99.90
22147;DHT22;13074;48.298;14.424;2023-01-26T06:10:00;2.10;99.90
22147;DHT22;13074;48.298;14.424;2023-01-26T06:12:27;2.10;99.90
22147;DHT22;13074;48.298;14.424;2023-01-26T06:15:00;2.10;99.90
22147;DHT22;13074;48.298;14.424;2023-01-26T06:17:27;2.10;99.90
22147;DHT22;13074;48.298;14.424;2023-01-26T06:19:56;2.20;99.90
22147;DHT22;13074;48.298;14.424;2023-01-26T06:22:23;2.20;99.90
22147;DHT22;13074;48.298;14.424;2023-01-26T06:24:50;2.20;99.90
22147;DHT22;13074;48.298;14.424;2023-01-26T06:27:18;2.20;99.90
22147;DHT22;13074;48.298;14.424;2023-01-26T06:29:46;2.20;99.90
22147;DHT22;13074;48.298;14.424;2023-01-26T06:32:13;2.20;99.90
22147;DHT22;13074;48.298;14.424;2023-01-26T06:34:41;2.20;99.90
22147;DHT22;13074;48.298;14.424;2023-01-26T06:37:09;2.20;99.90
22147;DHT22;13074;48.298;14.424;2023-01-26T06:39:37;2.30;99.90
22147;DHT22;13074;48.298;14.424;2023-01-26T06:42:05;2.20;99.90
22147;DHT22;13074;48.298;14.424;2023-01-26T06:44:33;2.20;99.90
22147;DHT22;13074;48.298;14.424;2023-01-26T06:47:00;2.20;99.90
22147;DHT22;13074;48.298;14.424;2023-01-26T06:49:27;2.20;99.90
22147;DHT22;13074;48.298;14.424;2023-01-26T06:51:58;2.20;99.90
22147;DHT22;13074;48.298;14.424;2023-01-26T06:54:30;2.20;99.90
22147;DHT22;13074;48.298;14.424;2023-01-26T06:56:57;2.20;99.90
22147;DHT22;13074;48.298;14.424;2023-01-26T06:59:24;2.20;99.90
22147;DHT22;13074;48.298;14.424;2023-01-26T07:01:52;2.20;99.90
22147;DHT22;13074;48.298;14.424;2023-01-26T07:04:19;2.20;99.90
22147;DHT22;13074;48.298;14.424;2023-01-26T07:06:46;2.20;99.90
22147;DHT22;13074;48.298;14.424;2023-01-26T07:09:13;2.30;99.90
22147;DHT22;13074;48.298;14.424;2023-01-26T07:11:43;2.30;99.90
22147;DHT22;13074;48.298;14.424;2023-01-26T07:14:10;2.30;99.90
22147;DHT22;13074;48.298;14.424;2023-01-26T07:16:37;2.30;99.90
22147;DHT22;13074;48.298;14.424;2023-01-26T07:19:04;2.40;99.90
22147;DHT22;13074;48.298;14.424;2023-01-26T07:21:32;2.30;99.90
22147;DHT22;13074;48.298;14.424;2023-01-26T07:24:00;2.30;99.90
22147;DHT22;13074;48.298;14.424;2023-01-26T07:26:27;2.30;99.90
22147;DHT22;13074;48.298;14.424;2023-01-26T07:28:56;2.30;99.90
22147;DHT22;13074;48.298;14.424;2023-01-26T07:31:23;2.40;99.90
22147;DHT22;13074;48.298;14.424;2023-01-26T07:33:50;2.40;99.90
22147;DHT22;13074;48.298;14.424;2023-01-26T07:36:18;2.40;99.90
22147;DHT22;13074;48.298;14.424;2023-01-26T07:38:45;2.30;99.90
22147;DHT22;13074;48.298;14.424;2023-01-26T07:41:13;2.30;99.90
22147;DHT22;13074;48.298;14.424;2023-01-26T07:43:40;2.30;99.90
22147;DHT22;13074;48.298;14.424;2023-01-26T07:46:09;2.40;99.90
22147;DHT22;13074;48.298;14.424;2023-01-26T07:48:36;2.40;99.90
22147;DHT22;13074;48.298;14.424;2023-01-26T07:51:05;2.40;99.90
22147;DHT22;13074;48.298;14.424;2023-01-26T07:53:34;2.40;99.90
22147;DHT22;13074;48.298;14.424;2023-01-26T07:56:08;2.40;99.90
22147;DHT22;13074;48.298;14.424;2023-01-26T07:58:36;2.40;99.90
22147;DHT22;13074;48.298;14.424;2023-01-26T08:01:09;2.40;99.90
22147;DHT22;13074;48.298;14.424;2023-01-26T08:03:37;2.40;99.90
22147;DHT22;13074;48.298;14.424;2023-01-26T08:06:05;2.40;99.90
22147;DHT22;13074;48.298;14.424;2023-01-26T08:08:33;2.50;99.90
22147;DHT22;13074;48.298;14.424;2023-01-26T08:11:01;2.40;99.90
22147;DHT22;13074;48.298;14.424;2023-01-26T08:13:29;2.50;99.90
22147;DHT22;13074;48.298;14.424;2023-01-26T08:16:00;2.50;99.90
22147;DHT22;13074;48.298;14.424;2023-01-26T08:18:30;2.50;99.90
22147;DHT22;13074;48.298;14.424;2023-01-26T08:20:58;2.50;99.90
22147;DHT22;13074;48.298;14.424;2023-01-26T08:23:26;2.50;99.90
22147;DHT22;13074;48.298;14.424;2023-01-26T08:25:53;2.50;99.90
22147;DHT22;13074;48.298;14.424;2023-01-26T08:28:20;2.50;99.90
22147;DHT22;13074;48.298;14.424;2023-01-26T08:30:48;2.60;99.90
22147;DHT22;13074;48.298;14.424;2023-01-26T08:33:15;2.60;99.90
22147;DHT22;13074;48.298;14.424;2023-01-26T08:35:43;2.60;99.90
22147;DHT22;13074;48.298;14.424;2023-01-26T08:38:10;2.70;99.90
22147;DHT22;13074;48.298;14.424;2023-01-26T08:40:38;2.70;99.90
22147;DHT22;13074;48.298;14.424;2023-01-26T08:43:05;2.70;99.90
22147;DHT22;13074;48.298;14.424;2023-01-26T08:45:32;2.80;99.90
22147;DHT22;13074;48.298;14.424;2023-01-26T08:47:59;2.80;99.90
22147;DHT22;13074;48.298;14.424;2023-01-26T08:50:26;2.80;99.90
22147;DHT22;13074;48.298;14.424;2023-01-26T08:52:58;2.90;99.90
22147;DHT22;13074;48.298;14.424;2023-01-26T08:55:25;2.90;99.90
22147;DHT22;13074;48.298;14.424;2023-01-26T08:57:53;2.90;99.90
22147;DHT22;13074;48.298;14.424;2023-01-26T09:00:22;2.90;99.90
22147;DHT22;13074;48.298;14.424;2023-01-26T09:02:52;2.90;99.90
22147;DHT22;13074;48.298;14.424;2023-01-26T09:05:24;2.90;99.90
22147;DHT22;13074;48.298;14.424;2023-01-26T09:07:51;2.90;99.90
22147;DHT22;13074;48.298;14.424;2023-01-26T09:10:19;2.80;99.90
22147;DHT22;13074;48.298;14.424;2023-01-26T09:12:46;2.80;99.90
22147;DHT22;13074;48.298;14.424;2023-01-26T09:15:14;2.80;99.90
22147;DHT22;13074;48.298;14.424;2023-01-26T09:17:41;2.80;99.90
22147;DHT22;13074;48.298;14.424;2023-01-26T09:20:09;2.80;99.90
22147;DHT22;13074;48.298;14.424;2023-01-26T09:22:36;2.80;99.90
22147;DHT22;13074;48.298;14.424;2023-01-26T09:25:04;2.80;99.90
22147;DHT22;13074;48.298;14.424;2023-01-26T09:27:33;2.90;99.90
22147;DHT22;13074;48.298;14.424;2023-01-26T09:30:01;2.90;99.90
22147;DHT22;13074;48.298;14.424;2023-01-26T09:32:29;3.00;99.90
22147;DHT22;13074;48.298;14.424;2023-01-26T09:34:56;3.00;99.90
22147;DHT22;13074;48.298;14.424;2023-01-26T09:37:23;3.00;99.90
22147;DHT22;13074;48.298;14.424;2023-01-26T09:39:50;3.00;99.90
22147;DHT22;13074;48.298;14.424;2023-01-26T09:42:36;3.00;99.90
22147;DHT22;13074;48.298;14.424;2023-01-26T09:45:26;3.00;99.90
22147;DHT22;13074;48.298;14.424;2023-01-26T09:48:05;3.00;99.90
22147;DHT22;13074;48.298;14.424;2023-01-26T09:50:39;3.00;99.90
22147;DHT22;13074;48.298;14.424;2023-01-26T09:53:13;3.00;99.90
22147;DHT22;13074;48.298;14.424;2023-01-26T09:55:41;3.00;99.90
22147;DHT22;13074;48.298;14.424;2023-01-26T09:58:13;2.90;99.90
22147;DHT22;13074;48.298;14.424;2023-01-26T10:00:46;2.90;99.90
22147;DHT22;13074;48.298;14.424;2023-01-26T10:03:19;3.00;99.90
22147;DHT22;13074;48.298;14.424;2023-01-26T10:05:53;2.90;99.90
22147;DHT22;13074;48.298;14.424;2023-01-26T10:08:23;2.90;99.90
22147;DHT22;13074;48.298;14.424;2023-01-26T10:10:53;2.90;99.90
22147;DHT22;13074;48.298;14.424;2023-01-26T10:13:23;2.90;99.90
22147;DHT22;13074;48.298;14.424;2023-01-26T10:15:53;2.90;99.90
22147;DHT22;13074;48.298;14.424;2023-01-26T10:18:27;2.90;99.90
22147;DHT22;13074;48.298;14.424;2023-01-26T10:20:57;2.90;99.90
22147;DHT22;13074;48.298;14.424;2023-01-26T10:23:28;2.90;99.90
22147;DHT22;13074;48.298;14.424;2023-01-26T10:26:01;2.90;99.90
22147;DHT22;13074;48.298;14.424;2023-01-26T10:28:34;2.90;99.90
22147;DHT22;13074;48.298;14.424;2023-01-26T10:31:03;3.00;99.90
22147;DHT22;13074;48.298;14.424;2023-01-26T10:33:33;2.90;99.90
22147;DHT22;13074;48.298;14.424;2023-01-26T10:36:01;3.00;99.90
22147;DHT22;13074;48.298;14.424;2023-01-26T10:38:39;3.00;99.90
22147;DHT22;13074;48.298;14.424;2023-01-26T10:41:23;3.10;99.90
22147;DHT22;13074;48.298;14.424;2023-01-26T10:43:55;3.10;99.90
22147;DHT22;13074;48.298;14.424;2023-01-26T10:46:25;3.10;99.90
22147;DHT22;13074;48.298;14.424;2023-01-26T10:48:54;3.20;99.90
22147;DHT22;13074;48.298;14.424;2023-01-26T10:51:25;3.20;99.90
22147;DHT22;13074;48.298;14.424;2023-01-26T10:54:21;3.30;99.90
22147;DHT22;13074;48.298;14.424;2023-01-26T10:56:50;3.30;99.90
22147;DHT22;13074;48.298;14.424;2023-01-26T10:59:27;3.40;99.90
22147;DHT22;13074;48.298;14.424;2023-01-26T11:01:56;3.40;99.90
22147;DHT22;13074;48.298;14.424;2023-01-26T11:04:25;3.40;99.90
22147;DHT22;13074;48.298;14.424;2023-01-26T11:06:52;3.40;99.90
22147;DHT22;13074;48.298;14.424;2023-01-26T11:09:25;3.50;99.90
22147;DHT22;13074;48.298;14.424;2023-01-26T11:11:59;3.60;99.90
22147;DHT22;13074;48.298;14.424;2023-01-26T11:14:29;3.70;99.90
22147;DHT22;13074;48.298;14.424;2023-01-26T11:17:02;3.70;99.90
22147;DHT22;13074;48.298;14.424;2023-01-26T11:19:44;3.70;99.90
22147;DHT22;13074;48.298;14.424;2023-01-26T11:22:17;3.80;99.90
22147;DHT22;13074;48.298;14.424;2023-01-26T11:24:52;3.80;99.90
22147;DHT22;13074;48.298;14.424;2023-01-26T11:27:34;3.80;99.90
22147;DHT22;13074;48.298;14.424;2023-01-26T11:30:27;3.80;99.90
22147;DHT22;13074;48.298;14.424;2023-01-26T11:33:02;3.80;99.90
22147;DHT22;13074;48.298;14.424;2023-01-26T11:35:41;3.80;99.90
22147;DHT22;13074;48.298;14.424;2023-01-26T11:38:27;3.70;99.90
22147;DHT22;13074;48.298;14.424;2023-01-26T11:41:11;3.70;99.90
22147;DHT22;13074;48.298;14.424;2023-01-26T11:44:23;3.70;99.90
22147;DHT22;13074;48.298;14.424;2023-01-26T11:47:00;3.60;99.90
22147;DHT22;13074;48.298;14.424;2023-01-26T11:50:02;3.60;99.90
22147;DHT22;13074;48.298;14.424;2023-01-26T11:52:38;3.60;99.90
22147;DHT22;13074;48.298;14.424;2023-01-26T11:55:21;3.60;99.90
22147;DHT22;13074;48.298;14.424;2023-01-26T11:58:03;3.60;99.90
22147;DHT22;13074;48.298;14.424;2023-01-26T12:00:39;3.50;99.90
22147;DHT22;13074;48.298;14.424;2023-01-26T12:03:16;3.50;99.90
22147;DHT22;13074;48.298;14.424;2023-01-26T12:05:47;3.50;99.90
22147;DHT22;13074;48.298;14.424;2023-01-26T12:08:21;3.40;99.90
22147;DHT22;13074;48.298;14.424;2023-01-26T12:10:58;3.50;99.90
22147;DHT22;13074;48.298;14.424;2023-01-26T12:13:51;3.40;99.90
22147;DHT22;13074;48.298;14.424;2023-01-26T12:16:26;3.40;99.90
22147;DHT22;13074;48.298;14.424;2023-01-26T12:19:05;3.40;99.90
22147;DHT22;13074;48.298;14.424;2023-01-26T12:21:38;3.40;99.90
22147;DHT22;13074;48.298;14.424;2023-01-26T12:24:13;3.40;99.90
22147;DHT22;13074;48.298;14.424;2023-01-26T12:26:43;3.40;99.90
22147;DHT22;13074;48.298;14.424;2023-01-26T12:29:16;3.40;99.90
22147;DHT22;13074;48.298;14.424;2023-01-26T12:31:48;3.30;99.90
22147;DHT22;13074;48.298;14.424;2023-01-26T12:34:26;3.20;99.90
22147;DHT22;13074;48.298;14.424;2023-01-26T12:37:04;3.20;99.90
22147;DHT22;13074;48.298;14.424;2023-01-26T12:39:34;3.10;99.90
22147;DHT22;13074;48.298;14.424;2023-01-26T12:42:17;3.10;99.90
22147;DHT22;13074;48.298;14.424;2023-01-26T12:44:49;3.10;99.90
22147;DHT22;13074;48.298;14.424;2023-01-26T12:47:22;3.10;99.90
22147;DHT22;13074;48.298;14.424;2023-01-26T12:49:56;3.10;99.90
22147;DHT22;13074;48.298;14.424;2023-01-26T12:52:27;3.10;99.90
22147;DHT22;13074;48.298;14.424;2023-01-26T12:55:01;3.10;99.90
22147;DHT22;13074;48.298;14.424;2023-01-26T12:57:33;3.10;99.90
22147;DHT22;13074;48.298;14.424;2023-01-26T13:00:05;3.10;99.90
22147;DHT22;13074;48.298;14.424;2023-01-26T13:02:35;3.10;99.90
22147;DHT22;13074;48.298;14.424;2023-01-26T13:05:04;3.20;99.90
22147;DHT22;13074;48.298;14.424;2023-01-26T13:07:34;3.20;99.90
22147;DHT22;13074;48.298;14.424;2023-01-26T13:10:27;3.20;99.90
22147;DHT22;13074;48.298;14.424;2023-01-26T13:12:57;3.20;99.90
22147;DHT22;13074;48.298;14.424;2023-01-26T13:15:26;3.20;99.90
22147;DHT22;13074;48.298;14.424;2023-01-26T13:17:56;3.10;99.90
22147;DHT22;13074;48.298;14.424;2023-01-26T13:20:48;3.10;99.90
22147;DHT22;13074;48.298;14.424;2023-01-26T13:23:49;3.00;99.90
22147;DHT22;13074;48.298;14.424;2023-01-26T13:26:23;3.00;99.90
22147;DHT22;13074;48.298;14.424;2023-01-26T13:28:51;2.90;99.90
22147;DHT22;13074;48.298;14.424;2023-01-26T13:31:38;2.90;99.90
22147;DHT22;13074;48.298;14.424;2023-01-26T13:34:07;2.80;99.90
22147;DHT22;13074;48.298;14.424;2023-01-26T13:36:38;2.80;99.90
22147;DHT22;13074;48.298;14.424;2023-01-26T13:39:12;2.80;99.90
22147;DHT22;13074;48.298;14.424;2023-01-26T13:41:45;2.70;99.90
22147;DHT22;13074;48.298;14.424;2023-01-26T13:44:16;2.70;99.90
22147;DHT22;13074;48.298;14.424;2023-01-26T13:46:49;2.60;99.90
22147;DHT22;13074;48.298;14.424;2023-01-26T13:49:24;2.60;99.90
22147;DHT22;13074;48.298;14.424;2023-01-26T13:51:53;2.60;99.90
22147;DHT22;13074;48.298;14.424;2023-01-26T13:54:22;2.60;99.90
22147;DHT22;13074;48.298;14.424;2023-01-26T13:57:00;2.60;99.90
22147;DHT22;13074;48.298;14.424;2023-01-26T13:59:28;2.60;99.90
22147;DHT22;13074;48.298;14.424;2023-01-26T14:01:56;2.60;99.90
22147;DHT22;13074;48.298;14.424;2023-01-26T14:04:24;2.60;99.90
22147;DHT22;13074;48.298;14.424;2023-01-26T14:06:55;2.50;99.90
22147;DHT22;13074;48.298;14.424;2023-01-26T14:09:26;2.50;99.90
22147;DHT22;13074;48.298;14.424;2023-01-26T14:11:58;2.40;99.90
22147;DHT22;13074;48.298;14.424;2023-01-26T14:14:27;2.40;99.90
22147;DHT22;13074;48.298;14.424;2023-01-26T14:16:57;2.40;99.90
22147;DHT22;13074;48.298;14.424;2023-01-26T14:19:25;2.40;99.90
22147;DHT22;13074;48.298;14.424;2023-01-26T14:21:55;2.30;99.90
22147;DHT22;13074;48.298;14.424;2023-01-26T14:24:29;2.40;99.90
22147;DHT22;13074;48.298;14.424;2023-01-26T14:26:57;2.40;99.90
22147;DHT22;13074;48.298;14.424;2023-01-26T14:29:27;2.40;99.90
22147;DHT22;13074;48.298;14.424;2023-01-26T14:31:57;2.40;99.90
22147;DHT22;13074;48.298;14.424;2023-01-26T14:34:26;2.40;99.90
22147;DHT22;13074;48.298;14.424;2023-01-26T14:37:06;2.40;99.90
22147;DHT22;13074;48.298;14.424;2023-01-26T14:39:34;2.40;99.90
22147;DHT22;13074;48.298;14.424;2023-01-26T14:42:01;2.40;99.90
22147;DHT22;13074;48.298;14.424;2023-01-26T14:44:29;2.30;99.90
22147;DHT22;13074;48.298;14.424;2023-01-26T14:46:58;2.20;99.90
22147;DHT22;13074;48.298;14.424;2023-01-26T14:49:37;2.20;99.90
22147;DHT22;13074;48.298;14.424;2023-01-26T14:52:18;2.20;99.90
22147;DHT22;13074;48.298;14.424;2023-01-26T14:54:48;2.20;99.90
22147;DHT22;13074;48.298;14.424;2023-01-26T14:57:19;2.20;99.90
22147;DHT22;13074;48.298;14.424;2023-01-26T14:59:49;2.20;99.90
22147;DHT22;13074;48.298;14.424;2023-01-26T15:02:18;2.10;99.90
22147;DHT22;13074;48.298;14.424;2023-01-26T15:04:49;2.10;99.90
22147;DHT22;13074;48.298;14.424;2023-01-26T15:07:31;2.20;99.90
22147;DHT22;13074;48.298;14.424;2023-01-26T15:09:59;2.10;99.90
22147;DHT22;13074;48.298;14.424;2023-01-26T15:12:26;2.10;99.90
22147;DHT22;13074;48.298;14.424;2023-01-26T15:14:59;2.10;99.90
22147;DHT22;13074;48.298;14.424;2023-01-26T15:17:29;2.10;99.90
22147;DHT22;13074;48.298;14.424;2023-01-26T15:19:56;2.10;99.90
22147;DHT22;13074;48.298;14.424;2023-01-26T15:22:25;2.00;99.90
22147;DHT22;13074;48.298;14.424;2023-01-26T15:25:12;2.10;99.90
22147;DHT22;13074;48.298;14.424;2023-01-26T15:27:48;2.00;99.90
22147;DHT22;13074;48.298;14.424;2023-01-26T15:30:18;2.00;99.90
22147;DHT22;13074;48.298;14.424;2023-01-26T15:32:45;2.00;99.90
22147;DHT22;13074;48.298;14.424;2023-01-26T15:35:24;1.90;99.90
22147;DHT22;13074;48.298;14.424;2023-01-26T15:38:03;1.90;99.90
22147;DHT22;13074;48.298;14.424;2023-01-26T15:40:31;2.00;99.90
22147;DHT22;13074;48.298;14.424;2023-01-26T15:43:09;2.00;99.90
22147;DHT22;13074;48.298;14.424;2023-01-26T15:45:38;2.00;99.90
22147;DHT22;13074;48.298;14.424;2023-01-26T15:48:08;2.00;99.90
22147;DHT22;13074;48.298;14.424;2023-01-26T15:50:35;2.00;99.90
22147;DHT22;13074;48.298;14.424;2023-01-26T15:53:03;1.90;99.90
22147;DHT22;13074;48.298;14.424;2023-01-26T15:55:32;1.80;99.90